Copperton, UT (84006)

1:11 AM MST on February 14, 2016 (GMT -0700)
Blackhawk Estates | | Change Station
CLOSE
Current Station
Personal Weather Station
Location: Herriman, UT
Elevation: 5010 ft
Nearby Weather Stations

Elev 5010 ft 40.51 °N, 112.04 °W | Updated 1 minute ago

Overcast
Overcast
24.3 °F
Feels Like 24 °F
N
0.0
Wind Variable Wind from ESE

Today
High -- | Low -- °F
--% Chance of Precip.
Yesterday
High -- | Low -- °F
Precip. -- in
Pressure 30.29 in
Visibility 0.8 miles
Clouds Overcast 300 ft
Windchill 24 °F
Dew Point 24 °F
Humidity 99%
Rainfall 0.00 in
Snow Depth Not available.
7:23 AM 6:01 PM
Waxing Crescent, 39% visible
METAR KU42 140755Z AUTO 00000KT 3/4SM OVC003 M02/M02 A3029 RMK AO1 T10251025
Pressure 30.29 in
Visibility 0.8 miles
Clouds Overcast 300 ft
Windchill 24 °F
Dew Point 24 °F
Humidity 99%
Rainfall 0.00 in
Snow Depth Not available.
7:23 AM 6:01 PM
Waxing Crescent, 39% visible
METAR KU42 140755Z AUTO 00000KT 3/4SM OVC003 M02/M02 A3029 RMK AO1 T10251025

10-Day Weather Forecast

Almanac

Astronomy

Feb. 14, 2016 Rise Set
Actual Time
Civil Twilight
Nautical Twilight
Astronomical Twilight
Moon
Length of Visible Light
Length of Day
Tomorrow will be .
, % of the Moon is Illuminated

Today's Extremes

State Highs State Lows

Community

WunderPhotos

Upload Photos

1,892,757 photos uploaded!

WunderBlog® & News

Nearby

Air Quality

  Air Quality AQ Index Pollutant
Not available.

Snow Depth

Station Depth Elevation

Earthquake Activity

City Distance Mag. Time & Date
Minimum magnitude displayed is 2.5.

Coastal Water Temperatures

Place Temperature

Stations

Nearby Weather Stations

Station Location Temp. Windchill Dew Point Humidity Wind Precip. Elev Updated Type
                   

Watches & Warnings

There are currently no watches in effect.